Terminal Aerodrome Forecast
Issued by NWS

Home | Current Version | Previous Version | Text Only | Print | Product List | Glossary On
Versions: 1 2 3 4 5 6 7 8 9 10 11 12 13 14
000
FTUS43 KIND 031700
TAFLAF
TAF
KLAF 031722Z 0318/0418 21011G19KT P6SM FEW050 BKN250
     FM040100 18008KT P6SM SCT150 BKN250
     FM040600 20007KT P6SM BKN100
     FM041000 22008KT P6SM VCSH BKN060
     FM041500 24011KT P6SM VCTS BKN050CB=

USA.gov is the U.S. government's official web portal to all federal, state and local government web resources and services.